sensor_id;sensor_type;location;lat;lon;timestamp;temperature;humidity
68433;DHT22;55412;51.350;17.056;2022-12-10T00:01:24;0.80;91.30
68433;DHT22;55412;51.350;17.056;2022-12-10T00:03:51;0.80;91.30
68433;DHT22;55412;51.350;17.056;2022-12-10T00:06:20;0.80;91.00
68433;DHT22;55412;51.350;17.056;2022-12-10T00:08:48;0.80;90.80
68433;DHT22;55412;51.350;17.056;2022-12-10T00:11:16;0.70;90.80
68433;DHT22;55412;51.350;17.056;2022-12-10T00:13:44;0.80;91.00
68433;DHT22;55412;51.350;17.056;2022-12-10T00:16:13;0.80;90.60
68433;DHT22;55412;51.350;17.056;2022-12-10T00:18:40;0.80;90.50
68433;DHT22;55412;51.350;17.056;2022-12-10T00:21:12;0.80;90.60
68433;DHT22;55412;51.350;17.056;2022-12-10T00:23:39;0.70;90.60
68433;DHT22;55412;51.350;17.056;2022-12-10T00:26:08;0.70;90.70
68433;DHT22;55412;51.350;17.056;2022-12-10T00:28:39;0.70;90.70
68433;DHT22;55412;51.350;17.056;2022-12-10T00:31:22;0.80;90.40
68433;DHT22;55412;51.350;17.056;2022-12-10T00:33:50;0.90;90.30
68433;DHT22;55412;51.350;17.056;2022-12-10T00:36:27;0.90;89.80
68433;DHT22;55412;51.350;17.056;2022-12-10T00:38:58;0.90;89.70
68433;DHT22;55412;51.350;17.056;2022-12-10T00:41:24;0.90;89.60
68433;DHT22;55412;51.350;17.056;2022-12-10T00:43:50;0.90;89.80
68433;DHT22;55412;51.350;17.056;2022-12-10T00:46:18;0.90;89.80
68433;DHT22;55412;51.350;17.056;2022-12-10T00:48:45;0.90;89.80
68433;DHT22;55412;51.350;17.056;2022-12-10T00:51:17;0.90;89.80
68433;DHT22;55412;51.350;17.056;2022-12-10T00:53:48;0.90;89.80
68433;DHT22;55412;51.350;17.056;2022-12-10T00:56:18;0.90;90.20
68433;DHT22;55412;51.350;17.056;2022-12-10T00:58:47;0.90;89.80
68433;DHT22;55412;51.350;17.056;2022-12-10T01:01:28;0.90;90.00
68433;DHT22;55412;51.350;17.056;2022-12-10T01:04:05;0.90;89.80
68433;DHT22;55412;51.350;17.056;2022-12-10T01:06:55;0.90;90.00
68433;DHT22;55412;51.350;17.056;2022-12-10T01:09:24;0.80;89.90
68433;DHT22;55412;51.350;17.056;2022-12-10T01:11:52;0.90;90.30
68433;DHT22;55412;51.350;17.056;2022-12-10T01:14:23;0.80;90.00
68433;DHT22;55412;51.350;17.056;2022-12-10T01:16:54;0.70;90.00
68433;DHT22;55412;51.350;17.056;2022-12-10T01:19:22;0.70;90.40
68433;DHT22;55412;51.350;17.056;2022-12-10T01:21:52;0.60;90.70
68433;DHT22;55412;51.350;17.056;2022-12-10T01:24:23;0.60;91.10
68433;DHT22;55412;51.350;17.056;2022-12-10T01:26:50;0.50;91.00
68433;DHT22;55412;51.350;17.056;2022-12-10T01:29:17;0.50;91.40
68433;DHT22;55412;51.350;17.056;2022-12-10T01:31:43;0.50;91.30
68433;DHT22;55412;51.350;17.056;2022-12-10T01:34:13;0.50;91.50
68433;DHT22;55412;51.350;17.056;2022-12-10T01:36:42;0.50;91.40
68433;DHT22;55412;51.350;17.056;2022-12-10T01:39:12;0.50;91.50
68433;DHT22;55412;51.350;17.056;2022-12-10T01:41:43;0.50;91.90
68433;DHT22;55412;51.350;17.056;2022-12-10T01:46:42;0.50;91.80
68433;DHT22;55412;51.350;17.056;2022-12-10T01:49:17;0.50;91.60
68433;DHT22;55412;51.350;17.056;2022-12-10T01:51:47;0.60;91.70
68433;DHT22;55412;51.350;17.056;2022-12-10T01:54:26;0.60;91.90
68433;DHT22;55412;51.350;17.056;2022-12-10T01:57:22;0.60;91.50
68433;DHT22;55412;51.350;17.056;2022-12-10T02:00:00;0.60;91.30
68433;DHT22;55412;51.350;17.056;2022-12-10T02:02:42;0.60;91.10
68433;DHT22;55412;51.350;17.056;2022-12-10T02:07:57;0.60;91.10
68433;DHT22;55412;51.350;17.056;2022-12-10T02:13:42;0.60;91.20
68433;DHT22;55412;51.350;17.056;2022-12-10T02:16:16;0.60;91.10
68433;DHT22;55412;51.350;17.056;2022-12-10T02:19:07;0.60;90.80
68433;DHT22;55412;51.350;17.056;2022-12-10T02:21:43;0.70;91.30
68433;DHT22;55412;51.350;17.056;2022-12-10T02:24:14;0.70;90.90
68433;DHT22;55412;51.350;17.056;2022-12-10T02:29:22;0.70;90.00
68433;DHT22;55412;51.350;17.056;2022-12-10T02:31:55;0.80;89.80
68433;DHT22;55412;51.350;17.056;2022-12-10T02:34:27;0.80;89.80
68433;DHT22;55412;51.350;17.056;2022-12-10T02:36:58;0.90;89.30
68433;DHT22;55412;51.350;17.056;2022-12-10T02:39:33;0.90;89.50
68433;DHT22;55412;51.350;17.056;2022-12-10T02:42:02;1.00;89.10
68433;DHT22;55412;51.350;17.056;2022-12-10T02:44:30;0.80;88.70
68433;DHT22;55412;51.350;17.056;2022-12-10T02:46:58;0.70;89.20
68433;DHT22;55412;51.350;17.056;2022-12-10T02:49:26;0.70;88.90
68433;DHT22;55412;51.350;17.056;2022-12-10T02:51:53;0.70;89.00
68433;DHT22;55412;51.350;17.056;2022-12-10T02:57:19;0.60;89.00
68433;DHT22;55412;51.350;17.056;2022-12-10T03:00:17;0.60;89.20
68433;DHT22;55412;51.350;17.056;2022-12-10T03:05:48;0.50;89.10
68433;DHT22;55412;51.350;17.056;2022-12-10T03:08:50;0.60;89.10
68433;DHT22;55412;51.350;17.056;2022-12-10T03:11:24;0.60;89.00
68433;DHT22;55412;51.350;17.056;2022-12-10T03:14:00;0.60;88.80
68433;DHT22;55412;51.350;17.056;2022-12-10T03:16:33;0.60;88.80
68433;DHT22;55412;51.350;17.056;2022-12-10T03:19:04;0.60;88.40
68433;DHT22;55412;51.350;17.056;2022-12-10T03:21:32;0.50;88.30
68433;DHT22;55412;51.350;17.056;2022-12-10T03:24:01;0.50;88.30
68433;DHT22;55412;51.350;17.056;2022-12-10T03:26:28;0.50;88.50
68433;DHT22;55412;51.350;17.056;2022-12-10T03:29:02;0.50;88.40
68433;DHT22;55412;51.350;17.056;2022-12-10T03:31:31;0.60;88.10
68433;DHT22;55412;51.350;17.056;2022-12-10T03:33:58;0.50;87.80
68433;DHT22;55412;51.350;17.056;2022-12-10T03:36:25;0.50;88.00
68433;DHT22;55412;51.350;17.056;2022-12-10T03:38:52;0.60;87.80
68433;DHT22;55412;51.350;17.056;2022-12-10T03:41:18;0.60;87.80
68433;DHT22;55412;51.350;17.056;2022-12-10T03:43:58;0.70;87.70
68433;DHT22;55412;51.350;17.056;2022-12-10T03:46:28;0.80;87.00
68433;DHT22;55412;51.350;17.056;2022-12-10T03:48:58;0.80;87.30
68433;DHT22;55412;51.350;17.056;2022-12-10T03:51:25;0.80;86.50
68433;DHT22;55412;51.350;17.056;2022-12-10T03:53:51;0.80;86.50
68433;DHT22;55412;51.350;17.056;2022-12-10T03:56:18;0.80;86.50
68433;DHT22;55412;51.350;17.056;2022-12-10T03:58:45;0.90;86.90
68433;DHT22;55412;51.350;17.056;2022-12-10T04:01:12;0.90;86.00
68433;DHT22;55412;51.350;17.056;2022-12-10T04:03:40;0.90;86.60
68433;DHT22;55412;51.350;17.056;2022-12-10T04:06:09;0.90;86.10
68433;DHT22;55412;51.350;17.056;2022-12-10T04:08:41;1.00;86.10
68433;DHT22;55412;51.350;17.056;2022-12-10T04:11:10;1.00;85.70
68433;DHT22;55412;51.350;17.056;2022-12-10T04:13:38;1.00;85.50
68433;DHT22;55412;51.350;17.056;2022-12-10T04:16:24;1.10;85.30
68433;DHT22;55412;51.350;17.056;2022-12-10T04:19:08;1.10;85.00
68433;DHT22;55412;51.350;17.056;2022-12-10T04:21:38;1.10;85.20
68433;DHT22;55412;51.350;17.056;2022-12-10T04:24:28;1.10;84.80
68433;DHT22;55412;51.350;17.056;2022-12-10T04:27:18;1.10;84.80
68433;DHT22;55412;51.350;17.056;2022-12-10T04:29:48;1.20;84.30
68433;DHT22;55412;51.350;17.056;2022-12-10T04:32:15;1.10;83.70
68433;DHT22;55412;51.350;17.056;2022-12-10T04:34:41;1.10;84.00
68433;DHT22;55412;51.350;17.056;2022-12-10T04:37:08;1.10;84.40
68433;DHT22;55412;51.350;17.056;2022-12-10T04:39:34;1.10;84.40
68433;DHT22;55412;51.350;17.056;2022-12-10T04:42:00;1.10;83.60
68433;DHT22;55412;51.350;17.056;2022-12-10T04:44:27;1.10;84.30
68433;DHT22;55412;51.350;17.056;2022-12-10T04:46:53;1.10;83.70
68433;DHT22;55412;51.350;17.056;2022-12-10T04:49:19;1.10;83.70
68433;DHT22;55412;51.350;17.056;2022-12-10T04:51:45;1.00;83.90
68433;DHT22;55412;51.350;17.056;2022-12-10T04:54:12;1.00;84.40
68433;DHT22;55412;51.350;17.056;2022-12-10T04:56:38;1.00;84.10
68433;DHT22;55412;51.350;17.056;2022-12-10T04:59:05;1.00;84.10
68433;DHT22;55412;51.350;17.056;2022-12-10T05:01:32;1.00;83.90
68433;DHT22;55412;51.350;17.056;2022-12-10T05:04:04;1.00;83.70
68433;DHT22;55412;51.350;17.056;2022-12-10T05:06:32;1.00;84.00
68433;DHT22;55412;51.350;17.056;2022-12-10T05:08:58;1.00;83.80
68433;DHT22;55412;51.350;17.056;2022-12-10T05:11:27;1.10;83.80
68433;DHT22;55412;51.350;17.056;2022-12-10T05:13:55;1.10;83.50
68433;DHT22;55412;51.350;17.056;2022-12-10T05:16:23;1.00;83.30
68433;DHT22;55412;51.350;17.056;2022-12-10T05:18:51;1.00;83.70
68433;DHT22;55412;51.350;17.056;2022-12-10T05:21:20;1.10;83.40
68433;DHT22;55412;51.350;17.056;2022-12-10T05:23:49;1.10;83.30
68433;DHT22;55412;51.350;17.056;2022-12-10T05:26:18;1.00;83.00
68433;DHT22;55412;51.350;17.056;2022-12-10T05:28:54;1.00;83.40
68433;DHT22;55412;51.350;17.056;2022-12-10T05:31:23;0.90;83.80
68433;DHT22;55412;51.350;17.056;2022-12-10T05:33:51;0.80;84.40
68433;DHT22;55412;51.350;17.056;2022-12-10T05:36:21;0.90;84.60
68433;DHT22;55412;51.350;17.056;2022-12-10T05:38:48;0.90;84.20
68433;DHT22;55412;51.350;17.056;2022-12-10T05:41:17;0.90;84.10
68433;DHT22;55412;51.350;17.056;2022-12-10T05:43:48;0.90;84.10
68433;DHT22;55412;51.350;17.056;2022-12-10T05:46:20;0.90;84.20
68433;DHT22;55412;51.350;17.056;2022-12-10T05:48:49;1.00;84.10
68433;DHT22;55412;51.350;17.056;2022-12-10T05:51:18;0.90;84.10
68433;DHT22;55412;51.350;17.056;2022-12-10T05:53:47;1.00;83.90
68433;DHT22;55412;51.350;17.056;2022-12-10T05:56:18;0.90;83.70
68433;DHT22;55412;51.350;17.056;2022-12-10T05:58:47;0.90;83.70
68433;DHT22;55412;51.350;17.056;2022-12-10T06:01:19;0.90;84.20
68433;DHT22;55412;51.350;17.056;2022-12-10T06:03:50;0.80;83.70
68433;DHT22;55412;51.350;17.056;2022-12-10T06:06:29;0.80;83.90
68433;DHT22;55412;51.350;17.056;2022-12-10T06:08:57;0.80;83.90
68433;DHT22;55412;51.350;17.056;2022-12-10T06:11:24;0.80;84.20
68433;DHT22;55412;51.350;17.056;2022-12-10T06:13:52;0.70;84.10
68433;DHT22;55412;51.350;17.056;2022-12-10T06:16:20;0.80;84.40
68433;DHT22;55412;51.350;17.056;2022-12-10T06:18:46;0.60;84.30
68433;DHT22;55412;51.350;17.056;2022-12-10T06:21:14;0.60;84.30
68433;DHT22;55412;51.350;17.056;2022-12-10T06:23:41;0.60;84.90
68433;DHT22;55412;51.350;17.056;2022-12-10T06:26:13;0.50;84.90
68433;DHT22;55412;51.350;17.056;2022-12-10T06:28:43;0.50;85.20
68433;DHT22;55412;51.350;17.056;2022-12-10T06:31:10;0.50;85.70
68433;DHT22;55412;51.350;17.056;2022-12-10T06:33:36;0.50;85.40
68433;DHT22;55412;51.350;17.056;2022-12-10T06:36:05;0.40;85.60
68433;DHT22;55412;51.350;17.056;2022-12-10T06:38:32;0.40;85.80
68433;DHT22;55412;51.350;17.056;2022-12-10T06:41:00;0.40;85.90
68433;DHT22;55412;51.350;17.056;2022-12-10T06:43:28;0.40;85.90
68433;DHT22;55412;51.350;17.056;2022-12-10T06:45:55;0.30;86.30
68433;DHT22;55412;51.350;17.056;2022-12-10T06:48:21;0.40;86.40
68433;DHT22;55412;51.350;17.056;2022-12-10T06:50:47;0.40;86.50
68433;DHT22;55412;51.350;17.056;2022-12-10T06:53:13;0.40;86.50
68433;DHT22;55412;51.350;17.056;2022-12-10T06:55:39;0.30;86.50
68433;DHT22;55412;51.350;17.056;2022-12-10T06:58:06;0.30;87.00
68433;DHT22;55412;51.350;17.056;2022-12-10T07:00:32;0.40;86.70
68433;DHT22;55412;51.350;17.056;2022-12-10T07:02:58;0.40;86.20
68433;DHT22;55412;51.350;17.056;2022-12-10T07:05:24;0.40;86.90
68433;DHT22;55412;51.350;17.056;2022-12-10T07:07:50;0.40;86.90
68433;DHT22;55412;51.350;17.056;2022-12-10T07:10:16;0.40;86.40
68433;DHT22;55412;51.350;17.056;2022-12-10T07:12:42;0.40;86.20
68433;DHT22;55412;51.350;17.056;2022-12-10T07:15:08;0.40;86.20
68433;DHT22;55412;51.350;17.056;2022-12-10T07:17:35;0.40;86.00
68433;DHT22;55412;51.350;17.056;2022-12-10T07:20:01;0.30;86.00
68433;DHT22;55412;51.350;17.056;2022-12-10T07:22:28;0.30;85.60
68433;DHT22;55412;51.350;17.056;2022-12-10T07:24:55;0.30;86.20
68433;DHT22;55412;51.350;17.056;2022-12-10T07:27:21;0.30;86.10
68433;DHT22;55412;51.350;17.056;2022-12-10T07:29:47;0.40;86.20
68433;DHT22;55412;51.350;17.056;2022-12-10T07:32:13;0.30;85.90
68433;DHT22;55412;51.350;17.056;2022-12-10T07:34:40;0.40;86.30
68433;DHT22;55412;51.350;17.056;2022-12-10T07:37:06;0.40;85.20
68433;DHT22;55412;51.350;17.056;2022-12-10T07:39:32;0.50;85.50
68433;DHT22;55412;51.350;17.056;2022-12-10T07:41:58;0.50;85.50
68433;DHT22;55412;51.350;17.056;2022-12-10T07:44:25;0.50;85.10
68433;DHT22;55412;51.350;17.056;2022-12-10T07:46:53;0.60;84.40
68433;DHT22;55412;51.350;17.056;2022-12-10T07:49:22;0.50;84.70
68433;DHT22;55412;51.350;17.056;2022-12-10T07:51:49;0.40;84.80
68433;DHT22;55412;51.350;17.056;2022-12-10T07:54:17;0.40;84.90
68433;DHT22;55412;51.350;17.056;2022-12-10T07:56:43;0.40;84.90
68433;DHT22;55412;51.350;17.056;2022-12-10T07:59:09;0.40;85.30
68433;DHT22;55412;51.350;17.056;2022-12-10T08:01:36;0.40;85.10
68433;DHT22;55412;51.350;17.056;2022-12-10T08:04:02;0.40;85.00
68433;DHT22;55412;51.350;17.056;2022-12-10T08:06:29;0.40;84.70
68433;DHT22;55412;51.350;17.056;2022-12-10T08:08:57;0.40;84.90
68433;DHT22;55412;51.350;17.056;2022-12-10T08:11:24;0.50;85.40
68433;DHT22;55412;51.350;17.056;2022-12-10T08:13:52;0.50;84.70
68433;DHT22;55412;51.350;17.056;2022-12-10T08:16:20;0.50;85.20
68433;DHT22;55412;51.350;17.056;2022-12-10T08:18:59;0.40;84.80
68433;DHT22;55412;51.350;17.056;2022-12-10T08:21:28;0.40;84.70
68433;DHT22;55412;51.350;17.056;2022-12-10T08:23:56;0.40;85.10
68433;DHT22;55412;51.350;17.056;2022-12-10T08:26:26;0.50;84.60
68433;DHT22;55412;51.350;17.056;2022-12-10T08:28:55;0.50;84.30
68433;DHT22;55412;51.350;17.056;2022-12-10T08:31:22;0.60;84.30
68433;DHT22;55412;51.350;17.056;2022-12-10T08:33:50;0.60;84.30
68433;DHT22;55412;51.350;17.056;2022-12-10T08:36:17;0.50;83.80
68433;DHT22;55412;51.350;17.056;2022-12-10T08:38:44;0.40;84.30
68433;DHT22;55412;51.350;17.056;2022-12-10T08:41:13;0.40;85.00
68433;DHT22;55412;51.350;17.056;2022-12-10T08:43:41;0.40;85.10
68433;DHT22;55412;51.350;17.056;2022-12-10T08:46:09;0.40;84.70
68433;DHT22;55412;51.350;17.056;2022-12-10T08:48:37;0.40;85.00
68433;DHT22;55412;51.350;17.056;2022-12-10T08:51:05;0.30;84.80
68433;DHT22;55412;51.350;17.056;2022-12-10T08:53:32;0.30;84.90
68433;DHT22;55412;51.350;17.056;2022-12-10T08:55:59;0.20;84.80
68433;DHT22;55412;51.350;17.056;2022-12-10T08:58:25;0.20;85.00
68433;DHT22;55412;51.350;17.056;2022-12-10T09:00:51;0.20;85.30
68433;DHT22;55412;51.350;17.056;2022-12-10T09:03:17;0.30;85.40
68433;DHT22;55412;51.350;17.056;2022-12-10T09:05:44;0.30;85.50
68433;DHT22;55412;51.350;17.056;2022-12-10T09:08:10;0.30;85.30
68433;DHT22;55412;51.350;17.056;2022-12-10T09:10:38;0.30;85.30
68433;DHT22;55412;51.350;17.056;2022-12-10T09:13:05;0.30;85.20
68433;DHT22;55412;51.350;17.056;2022-12-10T09:15:32;0.30;84.70
68433;DHT22;55412;51.350;17.056;2022-12-10T09:17:58;0.20;84.80
68433;DHT22;55412;51.350;17.056;2022-12-10T09:20:24;0.30;85.50
68433;DHT22;55412;51.350;17.056;2022-12-10T09:22:50;0.30;85.40
68433;DHT22;55412;51.350;17.056;2022-12-10T09:25:17;0.40;84.80
68433;DHT22;55412;51.350;17.056;2022-12-10T09:27:46;0.30;84.70
68433;DHT22;55412;51.350;17.056;2022-12-10T09:30:13;0.40;85.10
68433;DHT22;55412;51.350;17.056;2022-12-10T09:32:42;0.40;84.20
68433;DHT22;55412;51.350;17.056;2022-12-10T09:35:08;0.50;85.20
68433;DHT22;55412;51.350;17.056;2022-12-10T09:37:34;0.40;84.10
68433;DHT22;55412;51.350;17.056;2022-12-10T09:40:00;0.50;84.50
68433;DHT22;55412;51.350;17.056;2022-12-10T09:45:32;0.40;83.80
68433;DHT22;55412;51.350;17.056;2022-12-10T09:51:42;0.60;84.10
68433;DHT22;55412;51.350;17.056;2022-12-10T09:55:10;0.40;83.90
68433;DHT22;55412;51.350;17.056;2022-12-10T10:00:26;0.60;85.00
68433;DHT22;55412;51.350;17.056;2022-12-10T10:03:01;0.50;84.40
68433;DHT22;55412;51.350;17.056;2022-12-10T10:05:31;0.60;84.10
68433;DHT22;55412;51.350;17.056;2022-12-10T10:08:14;0.60;83.90
68433;DHT22;55412;51.350;17.056;2022-12-10T10:11:03;0.70;83.50
68433;DHT22;55412;51.350;17.056;2022-12-10T10:13:39;0.80;84.00
68433;DHT22;55412;51.350;17.056;2022-12-10T10:19:00;0.70;82.30
68433;DHT22;55412;51.350;17.056;2022-12-10T10:21:38;0.70;83.40
68433;DHT22;55412;51.350;17.056;2022-12-10T10:24:07;0.60;83.00
68433;DHT22;55412;51.350;17.056;2022-12-10T10:26:42;0.60;83.10
68433;DHT22;55412;51.350;17.056;2022-12-10T10:29:11;0.50;83.50
68433;DHT22;55412;51.350;17.056;2022-12-10T10:31:41;0.60;84.30
68433;DHT22;55412;51.350;17.056;2022-12-10T10:34:20;0.70;83.70
68433;DHT22;55412;51.350;17.056;2022-12-10T10:36:55;0.70;83.00
68433;DHT22;55412;51.350;17.056;2022-12-10T10:39:29;0.60;83.10
68433;DHT22;55412;51.350;17.056;2022-12-10T10:41:57;0.60;82.60
68433;DHT22;55412;51.350;17.056;2022-12-10T10:44:34;0.60;82.90
68433;DHT22;55412;51.350;17.056;2022-12-10T10:47:02;0.60;83.00
68433;DHT22;55412;51.350;17.056;2022-12-10T10:49:49;0.50;83.10
68433;DHT22;55412;51.350;17.056;2022-12-10T10:52:16;0.60;82.70
68433;DHT22;55412;51.350;17.056;2022-12-10T10:54:44;0.60;83.00
68433;DHT22;55412;51.350;17.056;2022-12-10T11:00:19;0.70;83.10
68433;DHT22;55412;51.350;17.056;2022-12-10T11:02:48;0.70;83.00
68433;DHT22;55412;51.350;17.056;2022-12-10T11:05:29;0.70;83.30
68433;DHT22;55412;51.350;17.056;2022-12-10T11:07:59;0.70;83.50
68433;DHT22;55412;51.350;17.056;2022-12-10T11:10:30;0.80;83.20
68433;DHT22;55412;51.350;17.056;2022-12-10T11:12:59;0.90;83.10
68433;DHT22;55412;51.350;17.056;2022-12-10T11:15:41;1.00;83.80
68433;DHT22;55412;51.350;17.056;2022-12-10T11:18:32;1.00;81.90
68433;DHT22;55412;51.350;17.056;2022-12-10T11:21:02;1.00;82.20
68433;DHT22;55412;51.350;17.056;2022-12-10T11:23:41;0.90;82.00
68433;DHT22;55412;51.350;17.056;2022-12-10T11:41:15;0.90;82.00
68433;DHT22;55412;51.350;17.056;2022-12-10T11:44:15;1.00;82.20
68433;DHT22;55412;51.350;17.056;2022-12-10T11:50:07;1.00;82.00
68433;DHT22;55412;51.350;17.056;2022-12-10T12:02:05;0.90;81.90
68433;DHT22;55412;51.350;17.056;2022-12-10T12:07:59;0.70;82.00
68433;DHT22;55412;51.350;17.056;2022-12-10T12:21:07;0.70;82.60
68433;DHT22;55412;51.350;17.056;2022-12-10T12:23:52;0.70;82.70
68433;DHT22;55412;51.350;17.056;2022-12-10T12:26:32;0.70;82.90
68433;DHT22;55412;51.350;17.056;2022-12-10T12:29:27;0.60;82.70
68433;DHT22;55412;51.350;17.056;2022-12-10T12:32:20;0.70;83.00
68433;DHT22;55412;51.350;17.056;2022-12-10T12:35:25;0.70;82.70
68433;DHT22;55412;51.350;17.056;2022-12-10T12:38:21;0.80;83.00
68433;DHT22;55412;51.350;17.056;2022-12-10T12:44:38;0.80;82.70
68433;DHT22;55412;51.350;17.056;2022-12-10T12:50:47;0.70;82.10
68433;DHT22;55412;51.350;17.056;2022-12-10T12:53:17;0.80;82.90
68433;DHT22;55412;51.350;17.056;2022-12-10T12:56:05;0.80;82.50
68433;DHT22;55412;51.350;17.056;2022-12-10T13:01:58;0.90;82.50
68433;DHT22;55412;51.350;17.056;2022-12-10T13:04:28;0.90;82.30
68433;DHT22;55412;51.350;17.056;2022-12-10T13:09:50;0.90;82.00
68433;DHT22;55412;51.350;17.056;2022-12-10T13:12:30;0.90;82.30
68433;DHT22;55412;51.350;17.056;2022-12-10T13:15:02;1.00;81.70
68433;DHT22;55412;51.350;17.056;2022-12-10T13:18:02;1.00;81.80
68433;DHT22;55412;51.350;17.056;2022-12-10T13:20:39;1.00;81.50
68433;DHT22;55412;51.350;17.056;2022-12-10T13:23:33;1.00;81.70
68433;DHT22;55412;51.350;17.056;2022-12-10T13:26:01;1.00;81.80
68433;DHT22;55412;51.350;17.056;2022-12-10T13:28:30;0.90;82.30
68433;DHT22;55412;51.350;17.056;2022-12-10T13:39:22;0.80;82.70
68433;DHT22;55412;51.350;17.056;2022-12-10T13:47:55;0.60;83.10
68433;DHT22;55412;51.350;17.056;2022-12-10T14:02:40;0.60;83.00
68433;DHT22;55412;51.350;17.056;2022-12-10T14:05:33;0.50;83.10
68433;DHT22;55412;51.350;17.056;2022-12-10T14:08:29;0.50;83.60
68433;DHT22;55412;51.350;17.056;2022-12-10T14:11:00;0.40;83.30
68433;DHT22;55412;51.350;17.056;2022-12-10T14:13:44;0.50;83.70
68433;DHT22;55412;51.350;17.056;2022-12-10T14:16:14;0.50;83.20
68433;DHT22;55412;51.350;17.056;2022-12-10T14:18:42;0.50;83.40
68433;DHT22;55412;51.350;17.056;2022-12-10T14:21:13;0.50;83.30
68433;DHT22;55412;51.350;17.056;2022-12-10T14:23:45;0.50;83.60
68433;DHT22;55412;51.350;17.056;2022-12-10T14:26:16;0.50;83.40
68433;DHT22;55412;51.350;17.056;2022-12-10T14:31:35;0.70;83.40
68433;DHT22;55412;51.350;17.056;2022-12-10T14:34:08;0.70;83.30
68433;DHT22;55412;51.350;17.056;2022-12-10T14:36:45;0.80;83.30
68433;DHT22;55412;51.350;17.056;2022-12-10T14:39:19;0.90;83.20
68433;DHT22;55412;51.350;17.056;2022-12-10T14:42:03;0.90;83.10
68433;DHT22;55412;51.350;17.056;2022-12-10T14:44:32;0.90;83.20
68433;DHT22;55412;51.350;17.056;2022-12-10T14:47:20;1.00;83.10
68433;DHT22;55412;51.350;17.056;2022-12-10T14:49:48;1.10;82.90
68433;DHT22;55412;51.350;17.056;2022-12-10T14:52:25;1.10;82.70
68433;DHT22;55412;51.350;17.056;2022-12-10T14:54:58;1.10;82.60
68433;DHT22;55412;51.350;17.056;2022-12-10T14:57:28;1.10;82.30
68433;DHT22;55412;51.350;17.056;2022-12-10T15:00:10;1.10;82.30
68433;DHT22;55412;51.350;17.056;2022-12-10T15:02:42;1.10;82.00
68433;DHT22;55412;51.350;17.056;2022-12-10T15:05:17;1.10;82.20
68433;DHT22;55412;51.350;17.056;2022-12-10T15:08:33;1.10;82.10
68433;DHT22;55412;51.350;17.056;2022-12-10T15:10:45;1.10;82.10
68433;DHT22;55412;51.350;17.056;2022-12-10T15:13:23;1.10;81.50
68433;DHT22;55412;51.350;17.056;2022-12-10T15:16:00;1.10;82.00
68433;DHT22;55412;51.350;17.056;2022-12-10T15:18:30;1.00;81.60
68433;DHT22;55412;51.350;17.056;2022-12-10T15:21:18;1.00;81.90
68433;DHT22;55412;51.350;17.056;2022-12-10T15:23:46;1.00;81.70
68433;DHT22;55412;51.350;17.056;2022-12-10T15:26:23;1.00;81.70
68433;DHT22;55412;51.350;17.056;2022-12-10T15:31:48;1.00;81.80
68433;DHT22;55412;51.350;17.056;2022-12-10T15:34:16;1.10;81.40
68433;DHT22;55412;51.350;17.056;2022-12-10T15:36:49;1.10;81.00
68433;DHT22;55412;51.350;17.056;2022-12-10T15:39:37;1.00;81.00
68433;DHT22;55412;51.350;17.056;2022-12-10T15:42:43;1.00;81.20
68433;DHT22;55412;51.350;17.056;2022-12-10T15:45:23;1.00;80.80
68433;DHT22;55412;51.350;17.056;2022-12-10T15:47:55;1.00;81.20
68433;DHT22;55412;51.350;17.056;2022-12-10T15:50:24;1.10;81.20
68433;DHT22;55412;51.350;17.056;2022-12-10T15:52:51;1.10;81.20
68433;DHT22;55412;51.350;17.056;2022-12-10T15:55:18;1.10;81.20
68433;DHT22;55412;51.350;17.056;2022-12-10T15:57:44;1.10;81.40
68433;DHT22;55412;51.350;17.056;2022-12-10T16:00:23;1.10;81.10
68433;DHT22;55412;51.350;17.056;2022-12-10T16:03:11;1.20;81.20
68433;DHT22;55412;51.350;17.056;2022-12-10T16:05:39;1.20;81.00
68433;DHT22;55412;51.350;17.056;2022-12-10T16:08:27;1.20;80.60
68433;DHT22;55412;51.350;17.056;2022-12-10T16:10:59;1.20;80.80
68433;DHT22;55412;51.350;17.056;2022-12-10T16:13:31;1.20;81.00
68433;DHT22;55412;51.350;17.056;2022-12-10T16:16:09;1.20;81.20
68433;DHT22;55412;51.350;17.056;2022-12-10T16:18:38;1.20;81.00
68433;DHT22;55412;51.350;17.056;2022-12-10T16:21:05;1.10;81.10
68433;DHT22;55412;51.350;17.056;2022-12-10T16:23:33;1.10;81.30
68433;DHT22;55412;51.350;17.056;2022-12-10T16:26:00;1.10;81.20
68433;DHT22;55412;51.350;17.056;2022-12-10T16:28:27;1.10;81.00
68433;DHT22;55412;51.350;17.056;2022-12-10T16:30:55;1.10;81.50
68433;DHT22;55412;51.350;17.056;2022-12-10T16:33:24;1.10;81.40
68433;DHT22;55412;51.350;17.056;2022-12-10T16:35:52;1.10;81.40
68433;DHT22;55412;51.350;17.056;2022-12-10T16:38:20;1.10;81.60
68433;DHT22;55412;51.350;17.056;2022-12-10T16:40:47;1.10;81.40
68433;DHT22;55412;51.350;17.056;2022-12-10T16:43:22;1.20;81.70
68433;DHT22;55412;51.350;17.056;2022-12-10T16:45:51;1.10;81.50
68433;DHT22;55412;51.350;17.056;2022-12-10T16:48:18;1.20;81.90
68433;DHT22;55412;51.350;17.056;2022-12-10T16:50:45;1.20;81.80
68433;DHT22;55412;51.350;17.056;2022-12-10T16:53:22;1.20;81.60
68433;DHT22;55412;51.350;17.056;2022-12-10T16:55:52;1.20;81.90
68433;DHT22;55412;51.350;17.056;2022-12-10T16:58:19;1.20;81.80
68433;DHT22;55412;51.350;17.056;2022-12-10T17:00:48;1.20;81.70
68433;DHT22;55412;51.350;17.056;2022-12-10T17:03:19;1.20;81.40
68433;DHT22;55412;51.350;17.056;2022-12-10T17:06:00;1.30;81.60
68433;DHT22;55412;51.350;17.056;2022-12-10T17:08:29;1.30;81.70
68433;DHT22;55412;51.350;17.056;2022-12-10T17:10:56;1.30;81.60
68433;DHT22;55412;51.350;17.056;2022-12-10T17:13:42;1.30;81.50
68433;DHT22;55412;51.350;17.056;2022-12-10T17:16:19;1.30;81.40
68433;DHT22;55412;51.350;17.056;2022-12-10T17:18:49;1.30;81.40
68433;DHT22;55412;51.350;17.056;2022-12-10T17:21:15;1.30;81.40
68433;DHT22;55412;51.350;17.056;2022-12-10T17:23:41;1.30;81.40
68433;DHT22;55412;51.350;17.056;2022-12-10T17:26:22;1.20;81.50
68433;DHT22;55412;51.350;17.056;2022-12-10T17:28:58;1.20;81.40
68433;DHT22;55412;51.350;17.056;2022-12-10T17:31:27;1.30;81.60
68433;DHT22;55412;51.350;17.056;2022-12-10T17:33:53;1.30;81.50
68433;DHT22;55412;51.350;17.056;2022-12-10T17:36:19;1.30;81.20
68433;DHT22;55412;51.350;17.056;2022-12-10T17:38:45;1.30;81.50
68433;DHT22;55412;51.350;17.056;2022-12-10T17:41:11;1.30;81.40
68433;DHT22;55412;51.350;17.056;2022-12-10T17:43:39;1.30;81.30
68433;DHT22;55412;51.350;17.056;2022-12-10T17:46:09;1.20;81.40
68433;DHT22;55412;51.350;17.056;2022-12-10T17:48:36;1.20;81.60
68433;DHT22;55412;51.350;17.056;2022-12-10T17:51:03;1.20;81.70
68433;DHT22;55412;51.350;17.056;2022-12-10T17:53:29;1.20;81.80
68433;DHT22;55412;51.350;17.056;2022-12-10T17:55:58;1.20;82.10
68433;DHT22;55412;51.350;17.056;2022-12-10T17:58:26;1.20;82.00